< Cyclone 199911 1999 Season Cyclone 199913 >
Cyclone 199912 (FREDERIC)
General InformationTrack Information on Google MapsDetailed Wind InformationList of All Images || ResourceGoogle EarthGE AnimationAtom FeedGeoJSON
Detalied Best Track (Time Zone = UTC)
Year Month Day Hour Lat. Long. Pressure (hPa) Wind (kt) Class Image Chart
1999 3 25 13 -11.4 119.0 1005 19 2 Image --
1999 3 25 22 -12.0 117.2 1005 19 2 Image --
1999 3 26 01 -12.3 116.7 1005 19 2 Image --
1999 3 26 04 -12.5 116.1 1005 19 2 Image --
1999 3 26 07 -12.7 115.6 1005 19 2 Image --
1999 3 26 10 -12.9 115.0 1005 19 2 Image --
1999 3 26 13 -13.0 114.4 1005 19 2 Image --
1999 3 26 16 -13.2 113.8 1005 19 2 Image --
1999 3 26 19 -13.4 113.3 1002 23 2 Image --
1999 3 26 22 -13.4 112.6 1002 23 2 Image --
1999 3 27 01 -13.4 111.7 1000 27 2 Image --
1999 3 27 04 -13.8 111.2 995 35 3 Image --
1999 3 27 07 -14.3 110.7 995 35 3 Image --
1999 3 27 10 -14.5 110.3 990 41 3 Image --
1999 3 27 13 -14.6 109.6 990 41 3 Image --
1999 3 27 16 -14.6 109.3 990 41 3 Image --
1999 3 27 19 -14.6 109.0 985 49 4 Image --
1999 3 27 22 -14.7 108.5 985 49 4 Image --
1999 3 28 01 -14.7 108.5 985 49 4 Image --
1999 3 28 04 -15.0 107.8 985 49 4 Image --
1999 3 28 07 -15.2 107.5 985 49 4 Image --
1999 3 28 10 -15.5 106.9 985 49 4 Image --
1999 3 28 13 -15.6 106.5 985 49 4 Image --
1999 3 28 16 -15.6 106.1 980 54 4 Image --
1999 3 28 19 -15.7 105.7 970 64 5 Image --
1999 3 28 22 -15.7 105.3 970 64 5 Image --
1999 3 29 01 -15.7 104.8 965 70 5 Image --
1999 3 29 04 -15.8 103.9 960 76 5 Image --
1999 3 29 07 -16.0 103.1 960 76 5 Image --
1999 3 29 10 -16.1 102.4 955 80 5 Image --
1999 3 29 13 -16.4 101.6 950 84 5 Image --
1999 3 29 16 -16.6 100.9 945 89 5 Image --
1999 3 29 19 -16.6 100.1 940 93 5 Image --
1999 3 29 22 -16.8 99.5 940 93 5 Image --
1999 3 30 01 -16.9 98.8 940 93 5 Image --
1999 3 30 04 -16.8 98.2 935 97 5 Image --
1999 3 30 07 -16.8 97.5 930 101 5 Image --
1999 3 30 10 -17.0 96.8 930 101 5 Image --
1999 3 30 13 -17.0 95.9 930 101 5 Image --
1999 3 30 16 -17.1 95.3 930 101 5 Image --
1999 3 30 19 -17.1 94.9 930 101 5 Image --
1999 3 30 22 -17.1 94.3 930 101 5 Image --
1999 3 31 01 -17.3 93.8 925 105 5 Image --
1999 3 31 04 -17.3 93.3 920 107 5 Image --
1999 3 31 07 -17.4 92.7 920 107 5 Image --
1999 3 31 10 -17.5 92.2 920 107 5 Image --
1999 3 31 13 -17.5 91.8 920 107 5 Image --
1999 3 31 16 -17.5 91.1 920 107 5 Image --
1999 3 31 19 -17.4 90.9 920 107 5 Image --
1999 3 31 22 -17.4 90.6 920 107 5 Image --
1999 4 1 01 -17.4 90.3 920 107 5 Image --
1999 4 1 04 -17.5 90.1 930 101 5 Image --
1999 4 1 07 -17.7 89.7 940 93 5 Image --
1999 4 1 10 -17.9 89.4 955 80 5 Image --
< Cyclone 199911 1999 Season Cyclone 199913 >

Help